Time;durP1;ratioP1;P1;durP2;ratioP2;P2;SDS_P1;SDS_P2;PMS_P1;PMS_P2;Temp;Humidity;BMP_temperature;BMP_pressure;BME280_temperature;BME280_humidity;BME280_pressure;Samples;Min_cycle;Max_cycle;Signal;HPM_P1;HPM_P2
2022/09/05 00:01:32;;;;;;;5.70;3.30;;;23.40;61.20;;;;;;220431;1265;24265;-61
2022/09/05 00:07:09;;;;;;;5.80;3.30;;;23.40;61.20;;;;;;220572;1265;22613;-60
2022/09/05 00:12:57;;;;;;;5.80;3.20;;;23.40;61.30;;;;;;220635;1268;22719;-60
2022/09/05 00:19:02;;;;;;;4.80;3.50;;;23.40;61.30;;;;;;220560;1265;25611;-58
2022/09/05 00:25:14;;;;;;;4.30;3.00;;;23.40;61.60;;;;;;220422;1265;25614;-60
2022/09/05 00:31:42;;;;;;;7.80;3.30;;;23.40;61.40;;;;;;225416;1264;26501;-60
2022/09/05 00:37:36;;;;;;;6.50;3.00;;;23.40;62.00;;;;;;226508;1268;22533;-60
2022/09/05 00:43:05;;;;;;;4.30;3.30;;;23.40;61.60;;;;;;220331;1265;22519;-61
2022/09/05 00:48:41;;;;;;;5.20;3.30;;;23.40;61.70;;;;;;220656;1265;26821;-60
2022/09/05 00:54:30;;;;;;;5.30;3.30;;;23.40;62.40;;;;;;220465;1265;22796;-62
2022/09/05 01:00:30;;;;;;;6.00;3.20;;;23.40;62.00;;;;;;220576;1267;22524;-60
2022/09/05 01:06:14;;;;;;;4.80;2.90;;;23.30;62.00;;;;;;220554;1268;22513;-58
2022/09/05 01:12:10;;;;;;;6.70;3.30;;;23.30;62.10;;;;;;220703;1265;24833;-63
2022/09/05 01:18:00;;;;;;;4.00;2.90;;;23.30;62.20;;;;;;219956;1267;25231;-61
2022/09/05 01:23:31;;;;;;;9.80;2.90;;;23.30;62.20;;;;;;220409;1267;22532;-60
2022/09/05 01:29:05;;;;;;;6.20;3.00;;;23.30;62.20;;;;;;220411;1267;24227;-60
2022/09/05 01:34:51;;;;;;;6.00;3.00;;;23.30;62.20;;;;;;220444;1265;22519;-63
2022/09/05 01:40:57;;;;;;;4.70;2.80;;;23.30;62.30;;;;;;220533;1265;22529;-59
2022/09/05 01:46:51;;;;;;;5.10;3.00;;;23.30;62.30;;;;;;220640;1268;22714;-58
2022/09/05 01:52:46;;;;;;;5.80;2.90;;;23.30;62.60;;;;;;220465;1265;23077;-58
2022/09/05 01:58:46;;;;;;;4.20;3.20;;;23.30;62.30;;;;;;220437;1265;25497;-60
2022/09/05 02:04:45;;;;;;;5.70;3.20;;;23.30;62.30;;;;;;220569;1267;22524;-64
2022/09/05 02:10:37;;;;;;;5.60;3.20;;;23.30;62.40;;;;;;220553;1265;22532;-60
2022/09/05 02:16:14;;;;;;;4.60;3.30;;;23.20;62.40;;;;;;220367;1268;24246;-57
2022/09/05 02:22:01;;;;;;;3.90;3.20;;;23.20;62.40;;;;;;220547;1268;25525;-61
2022/09/05 02:27:40;;;;;;;4.80;2.80;;;23.20;62.50;;;;;;220500;1265;25277;-59
2022/09/05 02:33:44;;;;;;;4.70;2.80;;;23.20;62.50;;;;;;220338;1267;22550;-61
2022/09/05 02:39:24;;;;;;;5.60;2.90;;;23.20;62.50;;;;;;220324;1268;22540;-61
2022/09/05 02:45:09;;;;;;;5.70;2.80;;;23.20;62.50;;;;;;220486;1265;22526;-59
2022/09/05 02:51:10;;;;;;;4.20;2.70;;;23.20;62.40;;;;;;220357;1268;24219;-59
2022/09/05 02:57:30;;;;;;;3.70;2.80;;;23.20;62.40;;;;;;220492;1270;23832;-61
2022/09/05 03:03:26;;;;;;;3.70;2.80;;;23.20;62.50;;;;;;220559;1265;22525;-61
2022/09/05 03:09:17;;;;;;;4.50;2.60;;;23.20;62.30;;;;;;220530;1270;22577;-60
2022/09/05 03:14:47;;;;;;;;;;;23.20;62.40;;;;;;220438;1265;25226;-60
2022/09/05 03:20:54;;;;;;;3.60;2.50;;;23.20;62.60;;;;;;220623;1265;22525;-60
2022/09/05 03:26:59;;;;;;;3.80;2.70;;;23.20;62.60;;;;;;220292;1267;22525;-60
2022/09/05 03:32:36;;;;;;;3.90;2.70;;;23.10;62.50;;;;;;220535;1265;24263;-61
2022/09/05 03:38:39;;;;;;;3.60;2.40;;;23.20;62.70;;;;;;220460;1265;24253;-60
2022/09/05 03:44:32;;;;;;;3.70;2.80;;;23.10;62.80;;;;;;220496;1265;22698;-59
2022/09/05 03:50:05;;;;;;;3.90;2.40;;;23.10;62.50;;;;;;220698;1265;24183;-59
2022/09/05 03:55:49;;;;;;;4.80;2.80;;;23.10;62.90;;;;;;220507;1265;26699;-61
2022/09/05 04:01:44;;;;;;;3.60;2.40;;;23.10;62.70;;;;;;220478;1265;24721;-61
2022/09/05 04:07:25;;;;;;;4.50;2.70;;;23.10;62.70;;;;;;220471;1265;25535;-59
2022/09/05 04:13:19;;;;;;;4.30;2.30;;;23.10;62.80;;;;;;220503;1265;22461;-61
2022/09/05 04:19:16;;;;;;;3.60;2.80;;;23.10;62.70;;;;;;220464;1265;22601;-61
2022/09/05 04:25:01;;;;;;;5.50;2.80;;;23.10;62.70;;;;;;220620;1265;24243;-60
2022/09/05 04:30:46;;;;;;;3.10;2.50;;;23.10;62.70;;;;;;224991;1265;22530;-59
2022/09/05 04:36:16;;;;;;;3.80;2.20;;;23.10;62.60;;;;;;220366;1268;22524;-60
2022/09/05 04:41:42;;;;;;;3.40;2.40;;;23.10;62.70;;;;;;220569;1268;23931;-61
2022/09/05 04:47:08;;;;;;;3.40;2.60;;;23.10;63.10;;;;;;220713;1268;25496;-59
2022/09/05 04:52:50;;;;;;;3.30;2.20;;;23.10;62.80;;;;;;220911;1265;25568;-60
2022/09/05 04:58:36;;;;;;;3.80;2.60;;;23.00;62.80;;;;;;220745;1265;25598;-61
2022/09/05 05:04:21;;;;;;;4.60;2.60;;;23.00;62.80;;;;;;220768;1265;22646;-61
2022/09/05 05:10:05;;;;;;;3.80;2.70;;;23.00;62.80;;;;;;220755;1268;22536;-59
2022/09/05 05:15:55;;;;;;;3.80;2.60;;;23.10;63.00;;;;;;220799;1265;25405;-60
2022/09/05 05:21:36;;;;;;;3.10;2.20;;;23.00;63.20;;;;;;220986;1268;24295;-60
2022/09/05 05:27:05;;;;;;;3.50;2.40;;;23.00;62.70;;;;;;220699;1268;22532;-58
2022/09/05 05:32:41;;;;;;;5.40;2.90;;;23.10;62.60;;;;;;220837;1269;22605;-63
2022/09/05 05:38:15;;;;;;;8.90;2.90;;;23.10;63.20;;;;;;221032;1265;25328;-61
2022/09/05 05:43:40;;;;;;;7.30;3.30;;;23.10;65.10;;;;;;220581;1265;23213;-62
2022/09/05 05:49:16;;;;;;;13.10;3.50;;;23.20;66.30;;;;;;220736;1268;22602;-60
2022/09/05 05:54:45;;;;;;;;;;;23.20;66.50;;;;;;220996;1265;22548;-60
2022/09/05 06:00:13;;;;;;;8.60;3.50;;;23.20;66.70;;;;;;220720;1265;22528;-60
2022/09/05 06:05:53;;;;;;;9.30;3.50;;;23.20;66.30;;;;;;220473;1265;24212;-60
2022/09/05 06:11:54;;;;;;;17.30;4.00;;;23.20;65.70;;;;;;220798;1265;22528;-61
2022/09/05 06:18:24;;;;;;;15.20;3.60;;;23.20;65.80;;;;;;220356;1268;22868;-61
2022/09/05 06:24:17;;;;;;;7.20;3.20;;;23.30;65.60;;;;;;220486;1265;24354;-61
2022/09/05 06:30:04;;;;;;;9.30;3.90;;;23.30;65.50;;;;;;220642;1265;22544;-60
2022/09/05 06:35:56;;;;;;;8.50;3.80;;;23.30;65.00;;;;;;220545;1265;23160;-59
2022/09/05 06:41:36;;;;;;;17.50;4.10;;;23.30;64.40;;;;;;220566;1265;24055;-59
2022/09/05 06:47:05;;;;;;;11.60;3.80;;;23.40;64.60;;;;;;220666;1265;22524;-62
2022/09/05 06:53:25;;;;;;;17.40;4.50;;;23.40;64.20;;;;;;220713;1268;24245;-61
2022/09/05 06:59:12;;;;;;;13.50;4.30;;;23.30;63.90;;;;;;220513;1265;22619;-61
2022/09/05 07:04:35;;;;;;;11.60;3.90;;;23.30;62.90;;;;;;220517;1265;23297;-60
2022/09/05 07:10:28;;;;;;;15.70;4.10;;;23.40;62.50;;;;;;220370;1265;24256;-60
2022/09/05 07:16:15;;;;;;;18.50;4.20;;;23.40;62.40;;;;;;220352;1265;25537;-58
2022/09/05 07:22:27;;;;;;;9.70;4.10;;;23.40;62.30;;;;;;220703;1267;24253;-59
2022/09/05 07:28:14;;;;;;;13.60;4.10;;;23.40;62.40;;;;;;220765;1265;22551;-59
2022/09/05 07:34:03;;;;;;;9.00;3.90;;;23.40;62.40;;;;;;220691;1265;24245;-60
2022/09/05 07:39:51;;;;;;;11.40;3.60;;;23.50;62.30;;;;;;219996;1265;24067;-59
2022/09/05 07:45:19;;;;;;;7.00;3.60;;;23.50;62.40;;;;;;220693;1265;22533;-60
2022/09/05 07:50:50;;;;;;;5.80;3.30;;;23.50;62.40;;;;;;220411;1265;24242;-61
2022/09/05 07:56:43;;;;;;;8.70;3.50;;;23.50;62.20;;;;;;220492;1265;24339;-59
2022/09/05 08:02:24;;;;;;;7.30;3.60;;;23.60;62.50;;;;;;220561;1265;22987;-60
2022/09/05 08:07:53;;;;;;;7.80;3.40;;;23.60;62.30;;;;;;220395;1265;25553;-58
2022/09/05 08:13:19;;;;;;;6.20;3.40;;;23.60;62.10;;;;;;220482;1265;22601;-61
2022/09/05 08:19:03;;;;;;;6.50;3.40;;;23.60;62.10;;;;;;220435;1265;22526;-58
2022/09/05 08:24:28;;;;;;;;;;;23.60;62.10;;;;;;220513;1265;24251;-58
2022/09/05 08:29:53;;;;;;;8.50;3.80;;;23.60;62.30;;;;;;220468;1265;22538;-59
2022/09/05 08:35:46;;;;;;;5.90;3.10;;;23.60;62.60;;;;;;220782;1264;22539;-62
2022/09/05 08:41:21;;;;;;;5.80;3.70;;;23.70;62.10;;;;;;221153;1265;24058;-60
2022/09/05 08:47:26;;;;;;;5.00;3.10;;;23.70;62.20;;;;;;220753;1265;23652;-61
2022/09/05 08:53:15;;;;;;;6.40;3.40;;;23.80;61.90;;;;;;220562;1265;25038;-61
2022/09/05 08:59:16;;;;;;;5.90;3.50;;;23.80;61.80;;;;;;220544;1265;22597;-60
2022/09/05 09:05:11;;;;;;;6.60;3.30;;;23.80;61.60;;;;;;220788;1265;22547;-59
2022/09/05 09:11:10;;;;;;;5.80;3.20;;;23.80;61.50;;;;;;220678;1265;22548;-59
2022/09/05 09:16:43;;;;;;;5.80;3.30;;;23.90;61.50;;;;;;220528;1265;22611;-60
2022/09/05 09:22:24;;;;;;;5.00;3.30;;;23.90;61.40;;;;;;220659;1265;23068;-61
2022/09/05 09:28:03;;;;;;;5.60;3.30;;;23.90;61.30;;;;;;220895;1265;24426;-59
2022/09/05 09:34:19;;;;;;;4.60;3.10;;;23.90;61.10;;;;;;220467;1267;22616;-58
2022/09/05 09:40:02;;;;;;;5.80;3.30;;;24.00;61.20;;;;;;220754;1265;25299;-61
2022/09/05 09:45:50;;;;;;;6.00;3.20;;;24.00;61.50;;;;;;220907;1264;24262;-62
2022/09/05 09:51:37;;;;;;;4.50;3.40;;;24.10;61.00;;;;;;220505;1265;22658;-60
2022/09/05 09:57:22;;;;;;;4.20;3.00;;;24.10;60.80;;;;;;220262;1267;22703;-60
2022/09/05 10:03:23;;;;;;;5.80;3.30;;;24.10;61.10;;;;;;221101;1265;26533;-62
2022/09/05 10:09:26;;;;;;;5.40;3.20;;;24.20;61.10;;;;;;221036;1265;23051;-60
2022/09/05 10:15:25;;;;;;;4.70;3.20;;;24.30;60.60;;;;;;220460;1264;22717;-61
2022/09/05 10:21:24;;;;;;;4.30;3.10;;;24.30;60.50;;;;;;220411;1267;24329;-61
2022/09/05 10:27:13;;;;;;;3.80;3.00;;;24.40;60.80;;;;;;220873;1265;22552;-63
2022/09/05 10:33:01;;;;;;;4.80;3.00;;;24.40;60.30;;;;;;220915;1265;22557;-60
2022/09/05 10:38:45;;;;;;;5.00;3.10;;;24.40;60.30;;;;;;220629;1265;23911;-60
2022/09/05 10:44:09;;;;;;;4.60;3.20;;;24.50;60.70;;;;;;220453;1264;26245;-59
2022/09/05 10:49:37;;;;;;;5.30;3.20;;;24.50;60.90;;;;;;220599;1265;23910;-58
2022/09/05 10:55:07;;;;;;;5.40;2.80;;;24.50;60.50;;;;;;220521;1265;24310;-63
2022/09/05 11:01:05;;;;;;;3.70;2.70;;;24.50;60.10;;;;;;220551;1265;22518;-57
2022/09/05 11:06:50;;;;;;;;;;;24.60;60.00;;;;;;220859;1265;24306;-59
2022/09/05 11:12:53;;;;;;;5.50;3.30;;;24.70;59.90;;;;;;221030;1265;25238;-61
2022/09/05 11:18:24;;;;;;;4.20;2.90;;;24.70;59.80;;;;;;220558;1265;22547;-63
2022/09/05 11:24:19;;;;;;;4.40;3.00;;;24.70;59.90;;;;;;220824;1265;25236;-58
2022/09/05 11:29:52;;;;;;;4.80;3.20;;;24.70;59.70;;;;;;221068;1265;25296;-60
2022/09/05 11:35:24;;;;;;;5.30;3.10;;;24.80;59.70;;;;;;220685;1265;22553;-61
2022/09/05 11:41:40;;;;;;;4.30;3.00;;;24.90;59.60;;;;;;220448;1265;22620;-60
2022/09/05 11:47:35;;;;;;;3.40;2.70;;;24.80;59.50;;;;;;220791;1267;25254;-60
2022/09/05 11:53:35;;;;;;;4.30;2.80;;;24.90;59.50;;;;;;220515;1265;24249;-58
2022/09/05 11:59:17;;;;;;;3.90;2.90;;;24.90;59.50;;;;;;221098;1265;22999;-60
2022/09/05 12:05:22;;;;;;;3.90;2.80;;;25.00;59.30;;;;;;220805;1265;24380;-61
2022/09/05 12:11:35;;;;;;;3.10;2.50;;;24.90;59.30;;;;;;220094;1267;24251;-59
2022/09/05 12:17:15;;;;;;;3.30;2.70;;;25.00;59.30;;;;;;220935;1265;22590;-61
2022/09/05 12:23:20;;;;;;;3.70;2.60;;;25.00;59.30;;;;;;220660;1265;22831;-60
2022/09/05 12:29:13;;;;;;;3.10;2.60;;;25.10;59.20;;;;;;220882;1265;25415;-62
2022/09/05 12:35:02;;;;;;;3.20;2.70;;;25.10;59.80;;;;;;220533;1265;25242;-59
2022/09/05 12:41:06;;;;;;;4.30;2.90;;;25.10;59.10;;;;;;220597;1265;25297;-60
2022/09/05 12:46:56;;;;;;;4.00;3.10;;;25.10;58.70;;;;;;220880;1264;22531;-59
2022/09/05 12:52:42;;;;;;;3.30;2.90;;;25.10;59.00;;;;;;220780;1265;22524;-63
2022/09/05 12:58:20;;;;;;;4.40;2.90;;;25.10;59.00;;;;;;220968;1265;25439;-60
2022/09/05 13:04:17;;;;;;;3.40;2.80;;;25.10;59.30;;;;;;220639;1264;24312;-59
2022/09/05 13:09:59;;;;;;;3.30;2.60;;;25.10;58.90;;;;;;220880;1268;22606;-60
2022/09/05 13:16:08;;;;;;;4.60;2.90;;;25.20;59.20;;;;;;220805;1265;22548;-62
2022/09/05 13:21:57;;;;;;;4.50;3.00;;;25.20;58.80;;;;;;220747;1267;25239;-59
2022/09/05 13:27:30;;;;;;;3.80;2.70;;;25.20;58.70;;;;;;220626;1265;25387;-59
2022/09/05 13:32:57;;;;;;;3.20;2.70;;;25.30;59.10;;;;;;220798;1265;26614;-61
2022/09/05 13:39:01;;;;;;;3.70;2.70;;;25.30;59.10;;;;;;220685;1264;23048;-60
2022/09/05 13:44:28;;;;;;;3.60;2.70;;;25.30;58.70;;;;;;220683;1265;23041;-61
2022/09/05 13:50:12;;;;;;;3.50;2.90;;;25.30;58.70;;;;;;220809;1268;22525;-60
2022/09/05 13:55:57;;;;;;;2.90;2.30;;;25.30;58.70;;;;;;220737;1265;22559;-60
2022/09/05 14:01:26;;;;;;;3.20;2.60;;;25.30;58.70;;;;;;221012;1265;22558;-60
2022/09/05 14:07:14;;;;;;;3.30;2.90;;;25.20;58.70;;;;;;220772;1265;24259;-60
2022/09/05 14:13:10;;;;;;;3.20;2.60;;;25.20;58.80;;;;;;220663;1265;24299;-59
2022/09/05 14:24:34;;;;;;;2.90;2.40;;;25.20;58.80;;;;;;220790;1265;22587;-61
2022/09/05 14:30:25;;;;;;;3.40;2.50;;;25.20;58.80;;;;;;220747;1265;24244;-61
2022/09/05 14:36:42;;;;;;;2.80;2.30;;;25.20;59.10;;;;;;221013;1265;25354;-60
2022/09/05 14:42:50;;;;;;;3.70;2.60;;;25.20;58.80;;;;;;220728;1265;24428;-60
2022/09/05 14:48:02;;;;;;;3.00;2.60;;;25.20;58.80;;;;;;220543;1264;22759;-60
2022/09/05 14:53:09;;;;;;;3.50;2.70;;;25.20;58.90;;;;;;220403;1267;25232;-59
2022/09/05 14:58:38;;;;;;;3.20;2.50;;;25.20;58.80;;;;;;220793;1265;22580;-60
2022/09/05 15:04:09;;;;;;;3.50;2.90;;;25.10;58.80;;;;;;220813;1265;22545;-63
2022/09/05 15:09:34;;;;;;;3.80;2.80;;;25.10;58.80;;;;;;220866;1265;22545;-57
2022/09/05 15:15:21;;;;;;;3.20;2.50;;;25.10;58.80;;;;;;220688;1268;22529;-60
2022/09/05 15:20:42;;;;;;;2.80;2.50;;;25.10;58.70;;;;;;220991;1265;22576;-61
2022/09/05 15:25:58;;;;;;;3.20;2.50;;;25.10;58.70;;;;;;220717;1265;25304;-60
2022/09/05 15:31:28;;;;;;;3.30;2.70;;;25.00;59.00;;;;;;220759;1267;24379;-62
2022/09/05 15:36:41;;;;;;;3.00;2.50;;;25.00;58.70;;;;;;221137;1265;22569;-59
2022/09/05 15:41:45;;;;;;;3.30;2.50;;;25.00;58.70;;;;;;220498;1267;24199;-60
2022/09/05 15:47:03;;;;;;;3.40;2.60;;;25.00;58.70;;;;;;220945;1268;22525;-61
2022/09/05 15:52:16;;;;;;;3.00;2.40;;;24.90;58.80;;;;;;220777;1268;25349;-61
2022/09/05 15:57:20;;;;;;;3.40;2.70;;;24.90;59.20;;;;;;220972;1265;22681;-58
2022/09/05 16:02:26;;;;;;;3.00;2.40;;;24.90;59.00;;;;;;220794;1267;23192;-60
2022/09/05 16:07:46;;;;;;;3.40;2.70;;;24.90;59.00;;;;;;220675;1267;22541;-59
2022/09/05 16:13:18;;;;;;;3.60;2.40;;;24.90;59.00;;;;;;221045;1268;22691;-60
2022/09/05 16:18:46;;;;;;;3.60;2.50;;;24.90;59.00;;;;;;220443;1268;23941;-60
2022/09/05 16:24:29;;;;;;;3.30;2.60;;;24.90;59.30;;;;;;221085;1268;22543;-61
2022/09/05 16:29:59;;;;;;;3.10;2.50;;;24.80;58.90;;;;;;220881;1268;22537;-62
2022/09/05 16:35:17;;;;;;;3.50;2.30;;;24.80;58.90;;;;;;220508;1267;22531;-62
2022/09/05 16:40:35;;;;;;;3.00;2.50;;;24.80;58.90;;;;;;220598;1267;25658;-60
2022/09/05 16:45:50;;;;;;;3.80;2.80;;;24.80;59.00;;;;;;220616;1267;22572;-59
2022/09/05 16:50:58;;;;;;;3.60;2.80;;;24.70;58.90;;;;;;220620;1268;22556;-59
2022/09/05 16:56:23;;;;;;;4.00;2.80;;;24.70;58.90;;;;;;220777;1265;22558;-60
2022/09/05 17:01:45;;;;;;;3.10;2.60;;;24.70;58.80;;;;;;221008;1265;24306;-60
2022/09/05 17:07:26;;;;;;;3.20;2.50;;;24.70;58.90;;;;;;220475;1267;25237;-60
2022/09/05 17:12:42;;;;;;;3.70;2.70;;;24.70;58.80;;;;;;220562;1264;22969;-62
2022/09/05 17:18:08;;;;;;;3.40;2.70;;;24.70;58.90;;;;;;220577;1265;22525;-60
2022/09/05 17:23:28;;;;;;;;;;;24.70;58.90;;;;;;220631;1267;22568;-60
2022/09/05 17:28:52;;;;;;;3.50;2.60;;;24.60;58.90;;;;;;220458;1264;22525;-61
2022/09/05 17:34:23;;;;;;;2.90;2.40;;;24.60;59.00;;;;;;220744;1264;25196;-62
2022/09/05 17:39:39;;;;;;;3.40;2.40;;;24.60;59.20;;;;;;220686;1268;22571;-60
2022/09/05 17:44:54;;;;;;;3.30;2.70;;;24.60;58.90;;;;;;220843;1267;22530;-60
2022/09/05 17:50:38;;;;;;;4.00;2.90;;;24.60;59.40;;;;;;220728;1268;25607;-64
2022/09/05 17:55:48;;;;;;;3.20;2.60;;;24.50;59.30;;;;;;220714;1265;24330;-60
2022/09/05 18:01:04;;;;;;;3.80;2.70;;;24.50;59.60;;;;;;220780;1268;25336;-60
2022/09/05 18:06:19;;;;;;;3.90;2.70;;;24.50;59.60;;;;;;220746;1267;24321;-60
2022/09/05 18:11:32;;;;;;;3.60;2.60;;;24.50;59.40;;;;;;220953;1265;22529;-60
2022/09/05 18:16:47;;;;;;;3.40;2.60;;;24.50;59.70;;;;;;220641;1267;24374;-57
2022/09/05 18:22:32;;;;;;;4.60;2.60;;;24.50;59.10;;;;;;220905;1268;22546;-59
2022/09/05 18:27:50;;;;;;;3.50;2.70;;;24.50;59.10;;;;;;221100;1268;22562;-59
2022/09/05 18:33:24;;;;;;;3.60;2.60;;;24.50;59.10;;;;;;220771;1267;22550;-62
2022/09/05 18:39:22;;;;;;;3.60;2.40;;;24.50;59.10;;;;;;220595;1265;22547;-60
2022/09/05 18:44:51;;;;;;;5.30;2.50;;;24.40;58.90;;;;;;220706;1265;22672;-59
2022/09/05 18:50:27;;;;;;;2.80;2.40;;;24.40;59.00;;;;;;220673;1268;22538;-60
2022/09/05 18:55:52;;;;;;;3.70;2.80;;;24.40;59.00;;;;;;220670;1268;22540;-62
2022/09/05 19:01:51;;;;;;;3.60;2.90;;;24.40;59.00;;;;;;220682;1268;24152;-58
2022/09/05 19:07:21;;;;;;;3.90;2.60;;;24.30;59.00;;;;;;220975;1265;25229;-59
2022/09/05 19:12:37;;;;;;;3.80;2.90;;;24.30;59.50;;;;;;220744;1265;24688;-60
2022/09/05 19:18:15;;;;;;;3.30;2.70;;;24.30;59.00;;;;;;220642;1267;24221;-60
2022/09/05 19:24:01;;;;;;;3.20;2.50;;;24.30;59.00;;;;;;220662;1265;22592;-60
2022/09/05 19:29:16;;;;;;;3.60;2.90;;;24.30;59.00;;;;;;220575;1265;22610;-60
2022/09/05 19:34:44;;;;;;;4.20;2.80;;;24.30;59.10;;;;;;220469;1268;22526;-59
2022/09/05 19:40:19;;;;;;;2.90;2.40;;;24.30;58.90;;;;;;219556;1265;22519;-62
2022/09/05 19:45:44;;;;;;;3.50;2.80;;;24.30;59.00;;;;;;220781;1265;22612;-61
2022/09/05 19:51:17;;;;;;;5.40;2.90;;;24.30;59.00;;;;;;220907;1265;24281;-61
2022/09/05 19:56:36;;;;;;;3.40;2.30;;;24.30;59.00;;;;;;220656;1267;22564;-63
2022/09/05 20:01:44;;;;;;;3.40;2.40;;;24.20;58.70;;;;;;220652;1266;22862;-58
2022/09/05 20:06:49;;;;;;;2.90;2.30;;;24.20;58.80;;;;;;220965;1265;22729;-61
2022/09/05 20:11:58;;;;;;;3.90;2.90;;;24.20;58.70;;;;;;220817;1268;22544;-61
2022/09/05 20:17:27;;;;;;;3.60;3.00;;;24.20;58.60;;;;;;220535;1265;22516;-58
2022/09/05 20:22:33;;;;;;;3.30;2.60;;;24.20;58.70;;;;;;220697;1265;22530;-61
2022/09/05 20:27:52;;;;;;;3.40;2.70;;;24.20;58.80;;;;;;220590;1265;23908;-60
2022/09/05 20:33:02;;;;;;;4.40;3.10;;;24.10;59.00;;;;;;220660;1268;24323;-61
2022/09/05 20:38:34;;;;;;;3.40;2.60;;;24.20;58.80;;;;;;220923;1269;24271;-65
2022/09/05 20:44:19;;;;;;;3.40;2.70;;;24.20;59.00;;;;;;220759;1268;24218;-59
2022/09/05 20:49:32;;;;;;;3.90;2.90;;;24.10;59.00;;;;;;220578;1267;22540;-60
2022/09/05 20:54:59;;;;;;;3.40;2.60;;;24.10;59.10;;;;;;220472;1265;24931;-60
2022/09/05 21:00:42;;;;;;;3.40;2.60;;;24.10;59.30;;;;;;220513;1265;22534;-60
2022/09/05 21:06:31;;;;;;;3.70;2.60;;;24.10;59.30;;;;;;220654;1265;22530;-60
2022/09/05 21:11:37;;;;;;;3.90;2.70;;;24.10;59.30;;;;;;220905;1265;24335;-61
2022/09/05 21:16:58;;;;;;;4.20;2.60;;;24.10;59.20;;;;;;220698;1269;22539;-62
2022/09/05 21:22:21;;;;;;;3.70;2.90;;;24.10;59.50;;;;;;220567;1265;24266;-61
2022/09/05 21:27:25;;;;;;;4.50;3.00;;;24.00;59.20;;;;;;220443;1267;25690;-60
2022/09/05 21:32:33;;;;;;;4.10;3.00;;;24.00;59.30;;;;;;220824;1269;22591;-61
2022/09/05 21:37:47;;;;;;;3.50;2.40;;;24.00;59.30;;;;;;220605;1264;22539;-58
2022/09/05 21:43:00;;;;;;;3.60;2.70;;;24.00;59.10;;;;;;220726;1265;23454;-59
2022/09/05 21:48:27;;;;;;;4.20;2.50;;;24.00;59.20;;;;;;220734;1267;24331;-62
2022/09/05 21:53:37;;;;;;;3.50;2.20;;;24.00;59.20;;;;;;221049;1268;24077;-61
2022/09/05 21:59:02;;;;;;;4.80;2.50;;;23.90;59.40;;;;;;220671;1269;22544;-63
2022/09/05 22:04:33;;;;;;;3.50;2.40;;;23.90;59.10;;;;;;220389;1269;25269;-60
2022/09/05 22:09:50;;;;;;;3.50;2.60;;;23.90;59.00;;;;;;220791;1269;23094;-60
2022/09/05 22:15:02;;;;;;;3.20;2.50;;;23.90;59.10;;;;;;220773;1270;22523;-63
2022/09/05 22:20:42;;;;;;;3.90;2.70;;;23.90;59.00;;;;;;220554;1265;25630;-59
2022/09/05 22:25:47;;;;;;;3.50;2.30;;;23.90;58.90;;;;;;220472;1268;22535;-62
2022/09/05 22:30:51;;;;;;;3.20;2.40;;;23.90;59.10;;;;;;220686;1268;22701;-60
2022/09/05 22:35:57;;;;;;;3.50;2.40;;;23.90;59.00;;;;;;220518;1268;22548;-59
2022/09/05 22:41:02;;;;;;;3.50;2.40;;;23.90;59.10;;;;;;220489;1268;25661;-60
2022/09/05 22:46:08;;;;;;;3.20;2.20;;;23.90;58.80;;;;;;220502;1268;22524;-60
2022/09/05 22:51:12;;;;;;;3.70;2.70;;;23.90;59.00;;;;;;220606;1268;22772;-62
2022/09/05 22:56:35;;;;;;;3.10;2.30;;;23.80;58.90;;;;;;220532;1268;22627;-60
2022/09/05 23:01:40;;;;;;;3.50;2.40;;;23.80;58.90;;;;;;220498;1269;24265;-63
2022/09/05 23:06:44;;;;;;;3.10;2.30;;;23.90;58.90;;;;;;220392;1270;24215;-60
2022/09/05 23:11:57;;;;;;;2.80;2.20;;;23.80;58.90;;;;;;220628;1268;24182;-60
2022/09/05 23:17:04;;;;;;;3.20;2.30;;;23.80;58.80;;;;;;220605;1268;24320;-61
2022/09/05 23:22:09;;;;;;;3.20;2.40;;;23.80;58.80;;;;;;220180;1268;22537;-61
2022/09/05 23:27:19;;;;;;;2.80;2.10;;;23.80;58.90;;;;;;220355;1268;24212;-62
2022/09/05 23:32:34;;;;;;;3.10;2.30;;;23.80;58.90;;;;;;220619;1268;25236;-60
2022/09/05 23:37:42;;;;;;;4.10;2.60;;;23.80;58.90;;;;;;221193;1265;22564;-58
2022/09/05 23:42:53;;;;;;;3.40;2.40;;;23.80;58.90;;;;;;220927;1266;24242;-59
2022/09/05 23:48:00;;;;;;;3.70;2.50;;;23.80;58.90;;;;;;220895;1265;24211;-60
2022/09/05 23:53:04;;;;;;;3.70;2.50;;;23.80;58.80;;;;;;220772;1265;22531;-62
2022/09/05 23:58:15;;;;;;;3.40;2.50;;;23.80;58.80;;;;;;220830;1265;22679;-62
